M I D A S
Marine Information and Data Acquisition System
Tripno 336 of the Zeeleeuw from 2002-09-17 06:37:24 to 2002-09-17 14:37:17
Back to CruiseResearch ActivitiesStationsMapUnderway DataData graphs

EquipmentUnitsComment
TimeDGPSUTC
LatitudeDGPSDM.mWGS84
LongitudeDGPSDM.mWGS84
HeadingGyrodeg 
SOGDGPSknotsSpeed over ground
COGDGPSdegCourse over ground
DepthEcho soundermeters200 kHz
Missing or incorrect values are displayed as -999
Navigation data collected by the RV Zeeleeuw from 2002-09-17 06:37:24 to 2002-09-17 14:37:17
Time Latitude Longitude Heading SOG COG Depth
2002-09-17 06:38:26 51°13.66 2°55.961 118.3 0.1 182.6 8.3
2002-09-17 06:39:26 51°13.659 2°55.961 108.7 0.1 199.3 8.3
2002-09-17 06:40:27 51°13.665 2°55.933 102.3 2 285.8 -999
2002-09-17 06:41:27 51°13.67 2°55.871 94.7 2.6 275.6 -999
2002-09-17 06:42:27 51°13.673 2°55.8 89 2.4 271.2 10.6
2002-09-17 06:43:26 51°13.679 2°55.791 52 1.2 40 11.3
2002-09-17 06:44:26 51°13.685 2°55.792 20 0.7 220.3 11.6
2002-09-17 06:45:26 51°13.674 2°55.782 3.2 0.3 312.5 11.5
2002-09-17 06:46:26 51°13.724 2°55.732 328.3 5.4 323.6 11.1
2002-09-17 06:47:26 51°13.824 2°55.633 338.2 8.3 334.3 11.1
2002-09-17 06:48:26 51°13.951 2°55.544 339.8 8 337.2 11.2
2002-09-17 06:49:26 51°14.065 2°55.462 337.7 7.2 334.2 11
2002-09-17 06:50:26 51°14.178 2°55.369 331.8 8 329.6 11.3
2002-09-17 06:51:26 51°14.282 2°55.22 312.8 9.1 310.9 11.1
2002-09-17 06:52:25 51°14.363 2°54.991 297.7 10.7 296.1 9.9
2002-09-17 06:53:26 51°14.397 2°54.7 275.7 11.1 273.6 10.4
2002-09-17 06:54:26 51°14.372 2°54.39 248 12.4 246.5 10.1
2002-09-17 06:55:26 51°14.271 2°54.085 242.7 13.2 240 9.7
2002-09-17 06:56:26 51°14.16 2°53.784 240 13.2 238.7 9.8
2002-09-17 06:57:26 51°14.046 2°53.481 243.8 13.3 241.1 10.1
2002-09-17 06:58:26 51°13.941 2°53.17 244.2 13.2 241.7 10.4
2002-09-17 06:59:26 51°13.838 2°52.858 244.2 13.3 241.6 10.8
2002-09-17 07:00:26 51°13.734 2°52.546 244 13.3 243 10.9
2002-09-17 07:01:27 51°13.628 2°52.229 244.8 13.4 242 11.2
2002-09-17 07:02:27 51°13.525 2°51.916 244 13.4 241.7 11.3
2002-09-17 07:03:27 51°13.421 2°51.6 245.2 13.4 242.9 11.3
2002-09-17 07:04:26 51°13.318 2°51.291 244.5 13.5 241.9 11.4
2002-09-17 07:05:27 51°13.208 2°50.955 245.5 14.2 242.8 11.7
2002-09-17 07:06:28 51°13.096 2°50.613 244.7 14.2 242.4 11.9
2002-09-17 07:07:28 51°12.985 2°50.28 243.2 14.1 241 12
2002-09-17 07:08:27 51°12.876 2°49.956 244.3 14.1 241.6 12.2
2002-09-17 07:09:29 51°12.76 2°49.616 243.7 14.1 241.4 12.2
2002-09-17 07:10:27 51°12.654 2°49.296 244.8 14.2 242 12.3
2002-09-17 07:11:28 51°12.546 2°48.954 245.3 14.1 242.9 12.7
2002-09-17 07:12:27 51°12.438 2°48.629 244.3 14.1 242.7 12.8
2002-09-17 07:13:27 51°12.328 2°48.297 244.5 14.1 242.1 12.9
2002-09-17 07:14:28 51°12.218 2°47.962 245.3 14.1 243.3 13
2002-09-17 07:15:28 51°12.108 2°47.631 244.3 14.1 242.3 13
2002-09-17 07:16:28 51°11.999 2°47.3 243.5 14.1 241.7 13.3
2002-09-17 07:17:27 51°11.894 2°46.972 244 14.1 242.2 13.1
2002-09-17 07:18:27 51°11.785 2°46.643 243.8 14 241.7 13.2
2002-09-17 07:19:27 51°11.675 2°46.315 243.8 14 242 13.2
2002-09-17 07:20:28 51°11.568 2°45.976 248.3 14.1 245.7 13
2002-09-17 07:21:27 51°11.477 2°45.639 247.8 14 245.9 12.9
2002-09-17 07:22:26 51°11.386 2°45.301 248.3 14.1 246.4 12.9
2002-09-17 07:23:26 51°11.294 2°44.955 249.5 14.1 247.6 12.8
2002-09-17 07:24:27 51°11.2 2°44.606 249.5 14.2 247.3 12.7
2002-09-17 07:25:27 51°11.108 2°44.266 248.5 13.9 246.5 12.6
2002-09-17 07:26:27 51°11.014 2°43.927 249.5 14.2 248.1 12.6
2002-09-17 07:27:26 51°10.924 2°43.592 249.8 13.9 247.9 12.4
2002-09-17 07:28:28 51°10.845 2°43.229 253.2 14 251.2 12.5
2002-09-17 07:29:27 51°10.768 2°42.884 252.5 14 250.6 12.6
2002-09-17 07:30:28 51°10.688 2°42.531 253 13.9 250.2 12.5
2002-09-17 07:31:28 51°10.611 2°42.182 253.2 13.9 250.8 12.6
2002-09-17 07:32:28 51°10.536 2°41.832 252 14 250.5 12.7
2002-09-17 07:33:27 51°10.455 2°41.493 251 13.9 249.5 12.7
2002-09-17 07:34:27 51°10.374 2°41.149 253.3 13.9 250.7 12.8
2002-09-17 07:35:27 51°10.305 2°40.799 254.5 13.9 253.1 12.7
2002-09-17 07:36:28 51°10.235 2°40.444 254.5 13.7 252.6 13
2002-09-17 07:37:28 51°10.168 2°40.094 253.8 13.8 252.1 13.1
2002-09-17 07:38:28 51°10.092 2°39.749 249.7 13.9 248 13.2
2002-09-17 07:39:28 51°9.999 2°39.412 248.7 13.9 247.2 13.5
2002-09-17 07:40:28 51°9.91 2°39.073 249.7 13.9 247.5 13.7
2002-09-17 07:41:28 51°9.822 2°38.734 250 13.8 248.4 13.8
2002-09-17 07:42:27 51°9.732 2°38.405 249 13.8 247.2 14
2002-09-17 07:43:28 51°9.64 2°38.064 249.3 13.8 247 14.3
2002-09-17 07:44:27 51°9.55 2°37.737 247.5 13.7 246.1 14.4
2002-09-17 07:45:26 51°9.459 2°37.409 248.5 13.8 246.6 14.6
2002-09-17 07:46:27 51°9.366 2°37.066 248.5 13.8 246.2 15.1
2002-09-17 07:47:27 51°9.274 2°36.731 248.8 13.9 247.1 15.7
2002-09-17 07:48:27 51°9.184 2°36.393 248.7 13.8 247.4 16.2
2002-09-17 07:49:27 51°9.093 2°36.056 249.3 13.9 247.6 16.6
2002-09-17 07:50:28 51°8.998 2°35.715 248.8 13.9 247.1 17
2002-09-17 07:51:28 51°8.907 2°35.378 247.5 13.7 245.7 17.4
2002-09-17 07:52:28 51°8.815 2°35.04 247.8 13.9 245.1 17.8
2002-09-17 07:53:27 51°8.724 2°34.708 248.5 14 246.4 18.2
2002-09-17 07:54:28 51°8.628 2°34.367 245.5 13.8 243.2 18.5
2002-09-17 07:55:27 51°8.511 2°34.06 237.3 14 234.4 18.4
2002-09-17 07:56:27 51°8.38 2°33.756 239 13.9 236.2 18.3
2002-09-17 07:57:27 51°8.252 2°33.449 239 13.9 237.2 18
2002-09-17 07:58:28 51°8.119 2°33.144 237.5 14 234.2 17.5
2002-09-17 07:59:26 51°7.991 2°32.854 237 13.8 234.3 16.6
2002-09-17 08:00:27 51°7.856 2°32.555 235.8 13.7 233.3 15.7
2002-09-17 08:01:27 51°7.719 2°32.271 235.2 13.5 232.7 14.6
2002-09-17 08:02:27 51°7.578 2°31.993 232.7 13.4 230.2 13.9
2002-09-17 08:03:27 51°7.432 2°31.725 230.8 13.5 227.8 13.1
2002-09-17 08:04:30 51°7.277 2°31.442 232 13.5 228.6 12.1
2002-09-17 08:05:29 51°7.131 2°31.172 233.7 13.7 229.9 11.5
2002-09-17 08:06:30 51°6.957 2°30.93 210 13.8 207.1 10.7
2002-09-17 08:07:30 51°6.769 2°30.86 188.5 10.5 185.1 10.2
2002-09-17 08:08:30 51°6.609 2°30.89 169.2 9.3 164.1 9.6
2002-09-17 08:09:30 51°6.47 2°30.984 161.3 8.9 154.9 10.8
2002-09-17 08:10:30 51°6.426 2°31.193 75.2 9.7 74 12.7
2002-09-17 08:11:30 51°6.508 2°31.447 66.8 11.4 63.5 12.7
2002-09-17 08:12:30 51°6.6 2°31.714 62.3 11.7 59.4 12.4
2002-09-17 08:13:30 51°6.695 2°31.992 68.7 11.7 65.3 11.8
2002-09-17 08:14:30 51°6.776 2°32.269 68 10.2 64.7 11.2
2002-09-17 08:15:31 51°6.83 2°32.493 70.8 8.8 68.3 10.9
2002-09-17 08:16:31 51°6.871 2°32.702 100.5 8.4 91.1 10.3
2002-09-17 08:17:30 51°6.798 2°32.791 192.7 3 168.6 12.4
2002-09-17 08:18:29 51°6.788 2°32.796 251.3 0.9 231.7 12.4
2002-09-17 08:19:30 51°6.801 2°32.73 290.2 4.2 293.3 12.5
2002-09-17 08:20:30 51°6.826 2°32.637 268.7 1.7 283 11.8
2002-09-17 08:21:30 51°6.826 2°32.634 239.3 0.2 199.4 11.7
2002-09-17 08:22:30 51°6.82 2°32.63 247.2 0.5 221.4 12
2002-09-17 08:23:30 51°6.816 2°32.618 254.7 0.5 241.2 11.9
2002-09-17 08:24:30 51°6.814 2°32.606 255.8 0.5 249.6 12
2002-09-17 08:25:30 51°6.813 2°32.596 256.2 0.4 251.7 11.9
2002-09-17 08:26:30 51°6.812 2°32.59 253 0.2 242.4 12
2002-09-17 08:27:30 51°6.811 2°32.588 251.5 0.1 211 12.1
2002-09-17 08:28:30 51°6.81 2°32.588 248.3 0.1 147.9 12
2002-09-17 08:29:29 51°6.808 2°32.591 245.2 0.2 117.8 12.2
2002-09-17 08:30:30 51°6.809 2°32.594 242.8 0.2 108 12.2
2002-09-17 08:31:30 51°6.808 2°32.599 252.2 0.1 117.6 12.2
2002-09-17 08:32:31 51°6.809 2°32.599 261 0.1 338.4 12.1
2002-09-17 08:33:30 51°6.811 2°32.599 258 0.1 291 12.1
2002-09-17 08:34:30 51°6.81 2°32.598 243.5 0.2 188.6 12.2
2002-09-17 08:35:30 51°6.805 2°32.602 226.5 0.5 161.5 12.2
2002-09-17 08:36:30 51°6.798 2°32.607 220.3 0.5 152.6 12.5
2002-09-17 08:37:31 51°6.792 2°32.614 231 0.4 142.9 12.5
2002-09-17 08:38:30 51°6.79 2°32.619 243.5 0.2 110.2 12.6
2002-09-17 08:39:30 51°6.791 2°32.625 253.5 0.3 70.7 12.6
2002-09-17 08:40:30 51°6.794 2°32.631 257 0.3 65.5 12.6
2002-09-17 08:41:30 51°6.795 2°32.639 256.2 0.3 76.3 12.5
2002-09-17 08:42:30 51°6.797 2°32.647 254.2 0.3 71.2 12.5
2002-09-17 08:43:30 51°6.798 2°32.654 252.3 0.1 91.4 12.5
2002-09-17 08:44:30 51°6.797 2°32.654 245.8 0.2 206.8 12.5
2002-09-17 08:45:30 51°6.794 2°32.65 240.8 0.4 215.5 12.6
2002-09-17 08:46:31 51°6.79 2°32.638 257.5 0.6 260.1 12.6
2002-09-17 08:47:31 51°6.795 2°32.618 283 0.9 306.6 12.5
2002-09-17 08:48:30 51°6.812 2°32.603 308.5 1.3 341.3 12.1
2002-09-17 08:49:30 51°6.839 2°32.597 332.7 1.8 0.2 11.4
2002-09-17 08:50:31 51°6.873 2°32.609 0.5 2.2 20.2 10.4
2002-09-17 08:51:31 51°6.907 2°32.644 32 2.7 40.2 9.7
2002-09-17 08:52:30 51°6.933 2°32.71 79.5 3.3 71 9.5
2002-09-17 08:53:30 51°6.938 2°32.787 115.3 2.8 93.8 9.6
2002-09-17 08:54:30 51°6.881 2°32.833 210 6.1 197.3 11.4
2002-09-17 08:55:30 51°6.811 2°32.647 243.5 9.5 241.5 12.3
2002-09-17 08:56:31 51°6.765 2°32.394 263.7 10 264.2 12.1
2002-09-17 08:57:31 51°6.68 2°32.168 241.5 10.2 238.2 12.8
2002-09-17 08:58:31 51°6.613 2°31.918 251 10.3 248.2 13.2
2002-09-17 08:59:31 51°6.557 2°31.659 252.8 10.4 250.6 13.1
2002-09-17 09:00:30 51°6.511 2°31.398 257.3 10.4 255.6 12.5
2002-09-17 09:01:33 51°6.464 2°31.119 261.2 10.4 259.4 12
2002-09-17 09:02:31 51°6.53 2°30.888 323 10.8 322 9.6
2002-09-17 09:03:33 51°6.692 2°30.856 16.7 9.5 15 10.2
2002-09-17 09:04:33 51°6.841 2°30.929 23.8 9.3 20.9 10.6
2002-09-17 09:05:31 51°6.96 2°31.073 45.2 9.8 43.3 10.9
2002-09-17 09:06:34 51°7.112 2°31.28 43 12.1 40.4 11.4
2002-09-17 09:07:34 51°7.265 2°31.494 44 12.3 41.6 11.6
2002-09-17 09:08:33 51°7.415 2°31.71 45.2 12.4 42.6 13.4
2002-09-17 09:09:34 51°7.572 2°31.936 43.8 12.5 42 14.6
2002-09-17 09:10:31 51°7.707 2°32.167 55 12.7 51.8 15.5
2002-09-17 09:11:33 51°7.837 2°32.443 55 12.4 52.8 16.4
2002-09-17 09:12:37 51°7.95 2°32.687 54.8 10 53.6 17.1
2002-09-17 09:13:41 51°8.035 2°32.876 58.5 7.5 57.7 17.8
2002-09-17 09:14:49 51°8.103 2°33.057 82.8 7.6 76.2 17.9
2002-09-17 09:15:49 51°8.048 2°33.184 165.8 3.8 146.2 16.2
2002-09-17 09:16:50 51°8.046 2°33.214 209.3 1.2 67.6 -999
2002-09-17 09:17:49 51°8.043 2°33.161 296 3.9 296.6 16.5
2002-09-17 09:18:46 51°8.084 2°33.045 280 5.2 281.8 17.9
2002-09-17 09:19:50 51°8.081 2°32.975 238.5 0.1 140.4 18.1
2002-09-17 09:20:55 51°8.073 2°32.979 224.2 0.6 167.8 18
2002-09-17 09:21:55 51°8.064 2°32.979 242.7 0.4 192.4 17.9
2002-09-17 09:22:55 51°8.06 2°32.975 256.7 0.3 228.9 17.9
2002-09-17 09:23:55 51°8.058 2°32.968 259 0.3 252.4 17.8
2002-09-17 09:24:54 51°8.056 2°32.96 255.5 0.4 246.9 17.8
2002-09-17 09:25:59 51°8.052 2°32.951 247.7 0.4 219.7 17.8
2002-09-17 09:26:57 51°8.048 2°32.944 250.8 0.3 233.6 17.9
2002-09-17 09:28:06 51°8.046 2°32.937 259.7 0.2 261.4 17.7
2002-09-17 09:29:10 51°8.047 2°32.933 263.3 0.1 304.5 17.7
2002-09-17 09:30:10 51°8.048 2°32.933 259 0.1 19.9 17.8
2002-09-17 09:31:14 51°8.048 2°32.934 253.8 0.1 99.1 17.8
2002-09-17 09:32:14 51°8.048 2°32.937 246.8 0.2 116.7 17.7
2002-09-17 09:33:14 51°8.046 2°32.941 241.2 0.2 126.1 17.8
2002-09-17 09:34:14 51°8.044 2°32.946 244 0.2 118.9 17.7
2002-09-17 09:35:19 51°8.043 2°32.95 247.2 0.2 103 17.7
2002-09-17 09:36:27 51°8.043 2°32.955 245.3 0.2 101.4 17.6
2002-09-17 09:37:27 51°8.042 2°32.959 245.2 0.1 96 17.6
2002-09-17 09:38:26 51°8.042 2°32.962 248.2 0.1 88.7 17.7
2002-09-17 09:39:26 51°8.042 2°32.965 251.2 0.1 84.7 17.6
2002-09-17 09:40:32 51°8.043 2°32.968 255 0.1 54.3 17.6
2002-09-17 09:41:31 51°8.046 2°32.97 258.5 0.2 18.5 17.6
2002-09-17 09:42:31 51°8.049 2°32.973 263 0.3 26.5 17.7
2002-09-17 09:43:32 51°8.053 2°32.976 266.3 0.3 25.6 17.8
2002-09-17 09:44:34 51°8.058 2°32.98 270.7 0.4 22.8 17.8
2002-09-17 09:45:34 51°8.065 2°32.984 276.2 0.5 19.3 17.9
2002-09-17 09:46:35 51°8.073 2°32.989 278.7 0.5 19.7 17.8
2002-09-17 09:47:34 51°8.08 2°32.992 275 0.4 358.6 18
2002-09-17 09:48:34 51°8.089 2°32.987 287.2 0.8 329.2 18
2002-09-17 09:49:39 51°8.11 2°32.975 321.2 1.6 349.9 18.4
2002-09-17 09:50:38 51°8.141 2°32.979 357.5 2.2 15.3 18.3
2002-09-17 09:51:41 51°8.177 2°33.011 36.2 2.3 41.6 18.4
2002-09-17 09:52:45 51°8.202 2°33.062 64.3 2.3 58.7 18.7
2002-09-17 09:53:43 51°8.215 2°33.115 92.2 2.2 76.2 18.6
2002-09-17 09:54:46 51°8.217 2°33.172 120.2 2 93.8 18.7
2002-09-17 09:55:50 51°8.211 2°33.223 150.8 1.7 111.1 18.6
2002-09-17 09:56:58 51°8.196 2°33.278 131.2 2.6 109.6 18.3
2002-09-17 09:57:58 51°8.202 2°33.37 66 4 65.8 18.1
2002-09-17 09:58:57 51°8.255 2°33.426 352.5 3.8 8 18.4
2002-09-17 09:59:58 51°8.301 2°33.386 284.7 3.1 298.2 18.7
2002-09-17 10:00:58 51°8.316 2°33.289 278.2 4.3 282.9 18.5
2002-09-17 10:01:59 51°8.334 2°33.167 279.3 4.8 284.3 18.4
2002-09-17 10:02:59 51°8.358 2°33.044 293.8 4.9 298.2 18.3
2002-09-17 10:03:59 51°8.418 2°32.948 307.2 5.3 315.8 18.3
2002-09-17 10:05:00 51°8.484 2°32.846 306.7 5.5 315.2 19.1
2002-09-17 10:05:59 51°8.543 2°32.739 298 5.4 307.8 21.1
2002-09-17 10:06:58 51°8.582 2°32.628 270.7 4 285.8 21.2
2002-09-17 10:07:59 51°8.578 2°32.556 243 2 250.5 20.8
2002-09-17 10:08:59 51°8.565 2°32.52 236.2 1.4 234.5 20.6
2002-09-17 10:10:00 51°8.556 2°32.493 245.3 1.1 245.3 20.5
2002-09-17 10:10:59 51°8.548 2°32.469 240 1 235.6 20.4
2002-09-17 10:11:59 51°8.536 2°32.449 233.7 1.1 222.8 20.4
2002-09-17 10:12:59 51°8.524 2°32.427 242.2 1 235.9 20.3
2002-09-17 10:13:59 51°8.52 2°32.402 262.3 1 271.7 20.5
2002-09-17 10:15:00 51°8.522 2°32.379 263.3 0.8 273.7 20.7
2002-09-17 10:15:59 51°8.52 2°32.36 256.2 0.7 252.9 20.8
2002-09-17 10:16:59 51°8.515 2°32.344 257.8 0.7 245.1 20.7
2002-09-17 10:17:59 51°8.512 2°32.331 266 0.4 246.8 20.7
2002-09-17 10:18:59 51°8.51 2°32.323 266.2 0.3 249.5 20.7
2002-09-17 10:19:59 51°8.509 2°32.317 267.3 0.2 248.8 20.7
2002-09-17 10:20:59 51°8.508 2°32.314 268.5 0.1 259.3 20.7
2002-09-17 10:21:59 51°8.507 2°32.312 268.7   232.5 20.7
2002-09-17 10:22:59 51°8.507 2°32.311 270.8   331.5 20.7
2002-09-17 10:23:59 51°8.509 2°32.312 273.2 0.1 8.8 20.7
2002-09-17 10:24:58 51°8.511 2°32.313 278.3 0.1 31.3 20.6
2002-09-17 10:26:00 51°8.513 2°32.316 280.3 0.2 30.7 20.7
2002-09-17 10:26:59 51°8.516 2°32.318 275 0.2 30.1 20.7
2002-09-17 10:27:59 51°8.518 2°32.318 263.2 0.1 313.2 20.7
2002-09-17 10:28:59 51°8.518 2°32.314 265 0.2 286.3 20.6
2002-09-17 10:29:59 51°8.52 2°32.309 268.2 0.3 293 20.7
2002-09-17 10:30:59 51°8.522 2°32.301 267.8 0.3 288.5 20.6
2002-09-17 10:32:02 51°8.523 2°32.292 268.8 0.4 283.9 20.6
2002-09-17 10:33:03 51°8.526 2°32.283 270 0.4 292.2 20.4
2002-09-17 10:34:02 51°8.528 2°32.273 269.2 0.4 286.7 20.5
2002-09-17 10:35:03 51°8.529 2°32.264 269.2 0.3 291 20.4
2002-09-17 10:36:02 51°8.532 2°32.257 270.3 0.3 292.5 20.4
2002-09-17 10:37:02 51°8.534 2°32.251 271 0.2 308.3 20.4
2002-09-17 10:38:02 51°8.537 2°32.248 273.3 0.2 330.5 20.4
2002-09-17 10:39:02 51°8.541 2°32.24 282.8 0.5 314.8 20.4
2002-09-17 10:40:02 51°8.551 2°32.227 298.5 0.9 324 20.4
2002-09-17 10:41:02 51°8.566 2°32.214 314 1.1 338.3 20.3
2002-09-17 10:42:08 51°8.588 2°32.206 331.8 1.3 353.9 20.3
2002-09-17 10:43:07 51°8.612 2°32.206 347.8 1.6 3.1 20.3
2002-09-17 10:44:06 51°8.638 2°32.215 3.2 1.7 18.3 20.3
2002-09-17 10:45:13 51°8.667 2°32.239 23.5 1.9 33.9 20.3
2002-09-17 10:46:13 51°8.691 2°32.274 42.7 2 48.9 20.3
2002-09-17 10:47:12 51°8.712 2°32.318 47.5 2.2 54 20.4
2002-09-17 10:48:13 51°8.735 2°32.363 39.3 2.1 48.4 20.2
2002-09-17 10:49:10 51°8.759 2°32.399 25.8 2 39.2 20.1
2002-09-17 10:50:13 51°8.788 2°32.432 18.3 2 32.8 20.1
2002-09-17 10:51:13 51°8.818 2°32.46 18.8 2.2 29.3 20
2002-09-17 10:52:11 51°8.846 2°32.491 24.2 2.2 35.1 19.9
2002-09-17 10:53:12 51°8.876 2°32.527 29.5 2.3 39.8 19.6
2002-09-17 10:54:13 51°8.904 2°32.567 30.5 2.3 40.6 19.3
2002-09-17 10:55:10 51°8.932 2°32.604 28.5 2.2 39.5 19.1
2002-09-17 10:56:11 51°8.961 2°32.641 27.5 2.2 38.1 18.6
2002-09-17 10:57:13 51°8.991 2°32.676 26.2 2.1 35.7 18.2
2002-09-17 10:58:10 51°9.018 2°32.705 24.2 2.1 33.2 17.6
2002-09-17 10:59:11 51°9.048 2°32.736 29.2 2.1 36.1 17
2002-09-17 11:00:11 51°9.077 2°32.771 31.5 2.2 35.8 16.5
2002-09-17 11:01:13 51°9.107 2°32.804 29.2 2.1 32.6 15.8
2002-09-17 11:02:13 51°9.133 2°32.835 45.3 1.9 43.9 15.4
2002-09-17 11:03:11 51°9.155 2°32.867 28.8 1.7 35.3 14.9
2002-09-17 11:04:13 51°9.179 2°32.882 357.3 1.4 11 14.3
2002-09-17 11:05:13 51°9.203 2°32.869 311.7 1.8 322.9 13.4
2002-09-17 11:06:13 51°9.212 2°32.822 260.2 2 266.8 12.6
2002-09-17 11:07:13 51°9.201 2°32.775 240 1.9 240.5 12.4
2002-09-17 11:08:17 51°9.177 2°32.739 220.5 1.8 214.3 12.6
2002-09-17 11:09:17 51°9.15 2°32.715 220 1.8 209.9 13.1
2002-09-17 11:10:17 51°9.127 2°32.691 220.3 1.6 209 13.3
2002-09-17 11:11:17 51°9.104 2°32.682 199.2 1.5 185.6 14
2002-09-17 11:12:17 51°9.081 2°32.682 193 1.3 176.5 14.7
2002-09-17 11:13:15 51°9.061 2°32.688 186.5 1.2 166.2 15.7
2002-09-17 11:14:17 51°9.041 2°32.697 181 1 158 16.5
2002-09-17 11:15:17 51°9.03 2°32.707 175.3 0.9 148.4 17.2
2002-09-17 11:16:17 51°9.023 2°32.717 170.8 0.5 128.4 17.6
2002-09-17 11:17:17 51°9.029 2°32.722 174 0.9 9.6 17.5
2002-09-17 11:18:17 51°9.047 2°32.728 180 1.1 11.7 16.8
2002-09-17 11:19:17 51°9.061 2°32.732 183 0.7 14.8 16.4
2002-09-17 11:20:17 51°9.071 2°32.737 186.7 0.5 19.5 16.1
2002-09-17 11:21:17 51°9.077 2°32.742 188.8 0.3 36.1 15.8
2002-09-17 11:22:17 51°9.078 2°32.747 189.8 0.2 70.9 15.9
2002-09-17 11:23:17 51°9.078 2°32.752 186.7 0.2 111.9 16
2002-09-17 11:24:15 51°9.075 2°32.758 182.7 0.3 132.2 16.2
2002-09-17 11:25:17 51°9.071 2°32.764 182.5 0.3 138.4 16.4
2002-09-17 11:26:17 51°9.068 2°32.77 181 0.3 68.2 16.6
2002-09-17 11:27:17 51°9.071 2°32.775 180.8 0.3 39.5 16.5
2002-09-17 11:28:15 51°9.082 2°32.779 185 1 9.9 16.3
2002-09-17 11:29:17 51°9.105 2°32.787 193.3 1.6 14.6 15.5
2002-09-17 11:30:17 51°9.114 2°32.79 220.8 1.3 214.2 15
2002-09-17 11:31:17 51°9.093 2°32.745 243.7 2.3 236.6 15.1
2002-09-17 11:32:17 51°9.073 2°32.696 246.7 2 240.5 15
2002-09-17 11:33:17 51°9.062 2°32.656 256 1.4 249.3 14.8
2002-09-17 11:34:15 51°9.057 2°32.63 264.3 0.8 259.5 14.4
2002-09-17 11:35:17 51°9.056 2°32.613 272.5 0.5 270.4 14.2
2002-09-17 11:36:17 51°9.056 2°32.608 282.5   124.5 14.1
2002-09-17 11:37:17 51°9.054 2°32.621 282.8 1 102.2 14.4
2002-09-17 11:38:17 51°9.049 2°32.671 271.3 2 93.2 -999
2002-09-17 11:39:15 51°9.05 2°32.713 261.7 1.4 85.4 16.1
2002-09-17 11:40:17 51°9.052 2°32.746 253.5 1 88 16.6
2002-09-17 11:41:17 51°9.053 2°32.764 244.3 0.4 93.6 16.8
2002-09-17 11:42:17 51°9.051 2°32.769 231.5 0.2 141 17.1
2002-09-17 11:43:17 51°9.047 2°32.77 228.7 0.2 180.8 17.2
2002-09-17 11:44:17 51°9.042 2°32.766 237.7 0.6 227.5 17.3
2002-09-17 11:45:17 51°9.042 2°32.717 296.8 2.6 294.9 16.4
2002-09-17 11:46:17 51°9.066 2°32.678 321.5 1.7 320.6 14.8
2002-09-17 11:47:17 51°9.086 2°32.658 328.2 1.2 330.6 13.8
2002-09-17 11:48:17 51°9.098 2°32.646 322 0.7 328.2 12.7
2002-09-17 11:49:17 51°9.106 2°32.638 320 0.5 328.5 12.9
2002-09-17 11:50:17 51°9.111 2°32.634 323.2 0.3 345.4 12.5
2002-09-17 11:51:17 51°9.11 2°32.635 319.8 0.1 116 12.4
2002-09-17 11:52:17 51°9.107 2°32.639 310.8 0.4 136.8 12.6
2002-09-17 11:53:17 51°9.103 2°32.649 300.8 0.4 114.5 13
2002-09-17 11:54:17 51°9.1 2°32.66 290.7 0.4 106.1 13.3
2002-09-17 11:55:17 51°9.097 2°32.67 283.2 0.4 101.5 13.4
2002-09-17 11:56:17 51°9.097 2°32.679 274.8 0.4 88.6 13.5
2002-09-17 11:57:17 51°9.096 2°32.685 269 0.1 119.3 13.7
2002-09-17 11:58:17 51°9.098 2°32.672 288 0.9 292.4 13.4
2002-09-17 11:59:17 51°9.109 2°32.645 317.7 1.5 315.7 12.7
2002-09-17 12:00:17 51°9.13 2°32.619 330 1.7 327.6 11.7
2002-09-17 12:01:17 51°9.156 2°32.601 342.2 1.7 340.6 11
2002-09-17 12:02:16 51°9.185 2°32.589 354.3 1.9 351.1 10.4
2002-09-17 12:03:17 51°9.219 2°32.591 19.8 2.2 15.5 10.1
2002-09-17 12:04:17 51°9.245 2°32.621 58.7 1.8 51 10
2002-09-17 12:05:17 51°9.252 2°32.664 98.5 1.7 91.6 10.2
2002-09-17 12:06:17 51°9.241 2°32.703 136 1.7 127.8 10.5
2002-09-17 12:07:17 51°9.218 2°32.838 88.5 8.5 87.5 12
2002-09-17 12:08:17 51°9.244 2°33.103 93.7 10.8 90.6 14.5
2002-09-17 12:09:17 51°9.283 2°33.442 90.3 14 86.1 16.8
2002-09-17 12:10:17 51°9.295 2°33.819 88 14.4 84.7 17.8
2002-09-17 12:11:17 51°9.299 2°34.199 103.7 14.4 98.3 19.2
2002-09-17 12:12:15 51°9.273 2°34.565 99.3 14.4 94.4 18.5
2002-09-17 12:13:17 51°9.261 2°34.959 97.8 14.3 92.9 18
2002-09-17 12:14:17 51°9.243 2°35.334 98.2 14.1 94.8 17.4
2002-09-17 12:15:17 51°9.225 2°35.71 97.5 14.3 94.6 16.9
2002-09-17 12:16:17 51°9.206 2°36.088 98.7 14.3 95 16.5
2002-09-17 12:17:19 51°9.178 2°36.477 98.5 14.3 96.1 14.6
2002-09-17 12:18:19 51°9.177 2°36.746 80.8 8 79.3 13.1
2002-09-17 12:19:19 51°9.22 2°36.911 61.3 6.3 60.7 13
2002-09-17 12:20:18 51°9.257 2°37.038 90 5.7 85.6 12.9
2002-09-17 12:21:19 51°9.18 2°37.123 171.7 5.4 168.3 11.7
2002-09-17 12:22:19 51°9.122 2°37.182 142.2 3.3 142 11
2002-09-17 12:23:18 51°9.107 2°37.194 186.2 0.9 0.8 10.9
2002-09-17 12:24:20 51°9.112 2°37.194 194.2 0.4 205.1 -999
2002-09-17 12:25:19 51°9.105 2°37.189 195.8 0.5 200.2 10.9
2002-09-17 12:26:17 51°9.096 2°37.183 198.2 0.6 200.3 10.9
2002-09-17 12:27:19 51°9.086 2°37.176 199.5 0.7 206.1 10.8
2002-09-17 12:28:18 51°9.075 2°37.169 199.3 0.7 203.6 10.7
2002-09-17 12:29:19 51°9.065 2°37.162 198.3 0.7 204.7 10.6
2002-09-17 12:30:19 51°9.056 2°37.154 203.2 0.6 205.9 10.5
2002-09-17 12:31:19 51°9.047 2°37.146 209.8 0.6 209.9 10.5
2002-09-17 12:32:19 51°9.034 2°37.13 223.7 1.2 223.9 10.4
2002-09-17 12:33:19 51°9.022 2°37.103 241.8 1.3 238.7 10.3
2002-09-17 12:34:19 51°9.014 2°37.076 252.3 1.1 249.3 10.2
2002-09-17 12:35:19 51°9.009 2°37.048 264.7 1.1 260.2 10.2
2002-09-17 12:36:19 51°9.028 2°36.986 327 4.1 318.5 10.4
2002-09-17 12:37:19 51°9.097 2°37.013 58 5 49.5 11
2002-09-17 12:38:18 51°9.131 2°37.142 66.7 4.7 64.5 11
2002-09-17 12:39:18 51°9.151 2°37.208 88 1.4 81.4 11.1
2002-09-17 12:40:18 51°9.15 2°37.217 112.8 0.2 130.3 10.9
2002-09-17 12:41:19 51°9.145 2°37.221 131.8 0.3 153.8 11
2002-09-17 12:42:19 51°9.139 2°37.222 146.7 0.4 173.8 10.9
2002-09-17 12:43:19 51°9.131 2°37.222 159.2 0.5 187.1 10.8
2002-09-17 12:44:19 51°9.122 2°37.221 167.2 0.6 191.2 10.8
2002-09-17 12:45:18 51°9.111 2°37.217 174.7 0.7 199.1 10.7
2002-09-17 12:46:22 51°9.097 2°37.209 190.5 0.9 202.8 10.6
2002-09-17 12:47:22 51°9.083 2°37.196 209.8 1.1 213.5 10.5
2002-09-17 12:48:22 51°9.069 2°37.174 229.3 1.3 234.1 10.4
2002-09-17 12:49:23 51°9.057 2°37.144 246.7 1.3 243.6 10.4
2002-09-17 12:50:23 51°9.051 2°37.111 261.8 1.3 253.5 10.2
2002-09-17 12:51:23 51°9.048 2°37.076 275.3 1.4 268.6 10.3
2002-09-17 12:52:23 51°9.049 2°37.041 287 1.2 277.5 10.3
2002-09-17 12:53:23 51°9.08 2°36.989 347.8 4.2 336.5 10.7
2002-09-17 12:54:23 51°9.135 2°37.059 82.2 5.2 76.1 11
2002-09-17 12:55:23 51°9.15 2°37.214 101.7 5.1 97.4 10.8
2002-09-17 12:56:23 51°9.138 2°37.26 150.7 0.3 303.8 10.8
2002-09-17 12:57:23 51°9.138 2°37.253 164.5 0.3 264.6 -999
2002-09-17 12:58:23 51°9.137 2°37.245 173.3 0.3 242.4 -999
2002-09-17 12:59:23 51°9.134 2°37.239 173.8 0.4 223.5 10.7
2002-09-17 13:00:23 51°9.129 2°37.232 173.8 0.4 218.6 10.7
2002-09-17 13:01:23 51°9.123 2°37.224 180.7 0.5 218.4 10.6
2002-09-17 13:02:23 51°9.115 2°37.214 187.7 0.7 217.3 10.5
2002-09-17 13:03:21 51°9.107 2°37.203 195.8 0.7 222.9 10.5
2002-09-17 13:04:27 51°9.096 2°37.188 205.3 0.8 227.1 10.5
2002-09-17 13:05:27 51°9.085 2°37.167 225.5 1.2 231.8 10.4
2002-09-17 13:06:28 51°9.075 2°37.136 248.7 1.4 249.7 10.2
2002-09-17 13:07:28 51°9.069 2°37.1 269.2 1.5 262.8 10.3
2002-09-17 13:08:28 51°9.068 2°37.061 286.8 1.5 272.9 10.3
2002-09-17 13:09:26 51°9.073 2°37.024 302.5 1.5 283.7 10.4
2002-09-17 13:10:27 51°9.081 2°36.988 317.8 1.4 294.2 10.5
2002-09-17 13:11:28 51°9.093 2°36.957 332.2 1.3 306.9 10.7
2002-09-17 13:12:27 51°9.107 2°36.933 347.2 1.2 317.2 10.8
2002-09-17 13:13:31 51°9.123 2°36.917 10.8 0.9 340 11.1
2002-09-17 13:14:29 51°9.135 2°36.918 39.7 0.7 20.7 11.2
2002-09-17 13:15:31 51°9.143 2°36.931 65.8 0.6 69.5 11.3
2002-09-17 13:16:31 51°9.142 2°36.944 83.5 0.5 112.3 11.3
2002-09-17 13:17:31 51°9.139 2°36.955 93.5 0.5 127.7 11.1
2002-09-17 13:18:32 51°9.131 2°36.965 103.8 0.6 145.6 11
2002-09-17 13:19:30 51°9.123 2°36.974 109.8 0.5 146.7 10.8
2002-09-17 13:20:32 51°9.115 2°36.981 113.2 0.5 157 10.7
2002-09-17 13:21:32 51°9.106 2°36.987 119.2 0.5 163.6 10.6
2002-09-17 13:22:31 51°9.096 2°36.991 125.5 0.6 171.8 10.5
2002-09-17 13:23:31 51°9.085 2°36.994 133 0.7 173.7 10.4
2002-09-17 13:24:31 51°9.072 2°36.993 142.2 0.7 185.8 10.2
2002-09-17 13:25:31 51°9.059 2°36.989 151.3 0.9 194.8 10.1
2002-09-17 13:26:30 51°9.045 2°36.981 159.7 0.9 201.8 9.9
2002-09-17 13:27:31 51°9.031 2°36.971 167.7 0.9 207.2 9.8
2002-09-17 13:28:38 51°9.014 2°36.957 179.2 1.2 205.8 9.7
2002-09-17 13:29:38 51°8.994 2°36.937 204.3 1.6 218.9 9.5
2002-09-17 13:30:37 51°8.974 2°36.903 234 1.8 235.8 9.4
2002-09-17 13:31:43 51°8.963 2°36.851 262.3 1.9 256.8 9.3
2002-09-17 13:32:43 51°8.961 2°36.8 286.7 1.9 273.2 9.4
2002-09-17 13:33:43 51°8.99 2°36.719 320.2 7.5 312.5 9.7
2002-09-17 13:34:43 51°9.153 2°36.684 30.3 11.5 25.8 12.1
2002-09-17 13:35:43 51°9.242 2°36.959 86.2 12.8 84 12.1
2002-09-17 13:36:43 51°9.243 2°37.311 89 13.3 86.9 10.8
2002-09-17 13:37:47 51°9.282 2°37.681 82.8 13.3 80.5 10.4
2002-09-17 13:38:47 51°9.314 2°38.03 84.5 13.3 82.2 10.1
2002-09-17 13:39:48 51°9.344 2°38.384 84 13.3 81.2 9.7
2002-09-17 13:40:47 51°9.382 2°38.723 82.2 13.3 79.6 9.2
2002-09-17 13:41:53 51°9.421 2°39.101 81.7 13.1 78.7 9.1
2002-09-17 13:42:51 51°9.463 2°39.432 82.3 13.2 79.2 8.8
2002-09-17 13:43:53 51°9.52 2°39.778 75.3 13.1 72.2 8.4
2002-09-17 13:44:51 51°9.582 2°40.096 76.5 13 73.5 8.3
2002-09-17 13:45:53 51°9.635 2°40.441 79.5 12.9 76.9 8.2
2002-09-17 13:46:53 51°9.683 2°40.773 80 12.9 77.8 7.9
2002-09-17 13:47:53 51°9.734 2°41.102 76.8 12.7 74.2 7.8
2002-09-17 13:48:53 51°9.813 2°41.416 67.7 12.8 64.2 7.8
2002-09-17 13:49:53 51°9.919 2°41.712 63.7 12.9 60.5 8
2002-09-17 13:50:53 51°10.019 2°42.015 61.2 12.9 57.4 8
2002-09-17 13:51:53 51°10.131 2°42.306 66 12.9 62.7 8.2
2002-09-17 13:52:53 51°10.242 2°42.599 63.8 12.9 60.5 8.3
2002-09-17 13:53:53 51°10.347 2°42.898 62.5 12.9 59 8.2
2002-09-17 13:54:53 51°10.453 2°43.196 64.5 13 61.2 7.9
2002-09-17 13:55:53 51°10.56 2°43.493 63.7 13 60.8 8.1
2002-09-17 13:56:53 51°10.665 2°43.795 63.3 13.1 60.1 8.5
2002-09-17 13:57:51 51°10.772 2°44.084 64 13.1 60.9 8.6
2002-09-17 13:58:58 51°10.89 2°44.424 63 13.2 59.9 8.9
2002-09-17 13:59:58 51°10.998 2°44.729 65 13.2 61.7 9.2
2002-09-17 14:00:58 51°11.105 2°45.037 64 13.3 60.9 9.1
2002-09-17 14:01:58 51°11.211 2°45.347 64 13.4 61.4 9.6
2002-09-17 14:02:58 51°11.322 2°45.655 63.2 13.4 60 9.7
2002-09-17 14:03:58 51°11.429 2°45.967 63.8 13.4 61.8 10.2
2002-09-17 14:04:58 51°11.54 2°46.276 63.3 13.4 60 10.5
2002-09-17 14:05:58 51°11.649 2°46.585 62.5 13.4 59.4 10.5
2002-09-17 14:06:58 51°11.757 2°46.895 65.2 13.4 62.5 10.7
2002-09-17 14:07:58 51°11.859 2°47.21 65 13.3 62.1 10.8
2002-09-17 14:08:58 51°11.964 2°47.523 64.7 13.4 62 10.6
2002-09-17 14:09:58 51°12.071 2°47.835 64 13.5 61.5 10.8
2002-09-17 14:10:58 51°12.178 2°48.148 63.5 13.4 60.9 10.9
2002-09-17 14:11:58 51°12.282 2°48.462 65.3 13.4 62.3 10.7
2002-09-17 14:12:58 51°12.391 2°48.771 61.5 13.4 58.7 10.8
2002-09-17 14:13:58 51°12.507 2°49.074 62.7 13.4 59.5 10.7
2002-09-17 14:14:58 51°12.62 2°49.38 62.7 13.4 59.8 10.7
2002-09-17 14:15:58 51°12.732 2°49.687 62.7 13.3 60 10.6
2002-09-17 14:16:58 51°12.844 2°49.994 62.3 13.4 58.9 10.6
2002-09-17 14:17:58 51°12.96 2°50.295 62.8 13.3 59.5 10.5
2002-09-17 14:18:58 51°13.072 2°50.6 63 13.3 59.7 10.4
2002-09-17 14:19:58 51°13.19 2°50.899 59.3 13.3 55.9 10.3
2002-09-17 14:20:58 51°13.309 2°51.195 60.7 13.3 57.7 10.2
2002-09-17 14:21:58 51°13.429 2°51.491 60.5 13.3 57.4 10.3
2002-09-17 14:22:58 51°13.548 2°51.786 60.2 13.3 57.1 10
2002-09-17 14:23:58 51°13.666 2°52.085 60.7 13.3 58 10.1
2002-09-17 14:24:58 51°13.784 2°52.382 60.2 13.3 57 10
2002-09-17 14:25:58 51°13.901 2°52.679 61 13.2 57.9 9.9
2002-09-17 14:26:58 51°14.019 2°52.975 60.2 13.2 56.8 9.7
2002-09-17 14:27:58 51°14.14 2°53.267 59.8 13.2 56.4 9.5
2002-09-17 14:28:58 51°14.259 2°53.559 61 13.1 57.1 9.2
2002-09-17 14:29:58 51°14.327 2°53.882 78 12.7 75.9 9
2002-09-17 14:30:58 51°14.379 2°54.199 79.5 12.1 77.6 8.7
2002-09-17 14:31:58 51°14.402 2°54.51 87 11.8 85.6 9.2
2002-09-17 14:32:58 51°14.394 2°54.821 95.5 11.7 96 9.1
2002-09-17 14:33:57 51°14.335 2°55.107 122.3 11.6 120.2 9.7
2002-09-17 14:34:57 51°14.24 2°55.314 140.5 8.4 137 9.8
2002-09-17 14:35:58 51°14.138 2°55.408 157.7 6.4 155 8.9
2002-09-17 14:36:58 51°14.047 2°55.474 157.2 5.8 154.7 8